Time;durP1;ratioP1;P1;durP2;ratioP2;P2;SDS_P1;SDS_P2;PMS_P1;PMS_P2;Temp;Humidity;BMP_temperature;BMP_pressure;BME280_temperature;BME280_humidity;BME280_pressure;Samples;Min_cycle;Max_cycle;Signal;HPM_P1;HPM_P2
2021/05/08 00:01:52;;;;;;;19.97;12.37;;;4.40;99.90;;;-143.32;100.00;55020.59;4934569;29;20461;-92
2021/05/08 00:05:34;;;;;;;;;;;;;;;;;;;;;
2021/05/08 00:12:06;;;;;;;25.37;14.33;;;4.30;99.90;;;-143.32;100.00;55012.53;5028656;28;20457;-94
2021/05/08 00:41:51;;;;;;;24.77;13.17;;;4.20;99.90;;;-143.32;100.00;54810.47;4917542;29;20412;-90
2021/05/08 00:45:08;;;;;;;22.63;13.33;;;4.00;99.90;;;-143.32;100.00;54778.13;4930428;28;20584;-92
2021/05/08 00:54:50;;;;;;;;;;;;;;;;;;;;;
2021/05/08 00:58:16;;;;;;;25.03;15.60;;;3.90;99.90;;;-143.32;100.00;54683.16;5018698;28;20433;-92
2021/05/08 01:05:12;;;;;;;;;;;;;;;;;;;;;
2021/05/08 01:08:02;;;;;;;25.00;15.93;;;4.10;99.90;;;-143.32;100.00;54697.31;5018174;28;20426;-93
2021/05/08 01:47:30;;;;;;;25.37;17.07;;;3.90;99.90;;;-143.32;100.00;54814.50;4738679;30;20537;-92
2021/05/08 03:54:58;;;;;;;38.77;18.30;;;4.40;1.00;;;-143.32;100.00;54790.25;5687158;22;20699;-91
2021/05/08 04:52:26;;;;;;;26.80;16.60;;;4.50;99.90;;;-143.32;100.00;54790.25;6146473;22;20605;-93
2021/05/08 04:55:04;;;;;;;29.50;17.37;;;4.70;1.00;;;-143.32;100.00;54768.03;5062609;28;20455;-91
2021/05/08 04:58:10;;;;;;;25.23;16.43;;;4.70;1.00;;;-143.32;100.00;54782.16;5067232;28;20444;-92
2021/05/08 05:04:57;;;;;;;31.97;18.60;;;5.00;4.20;;;-143.32;99.89;54798.34;5070555;28;20427;-92
2021/05/08 05:25:59;;;;;;;;;;;;;;;;;;;;;
2021/05/08 06:03:54;;;;;;;;;;;;;;;;;;;;;
2021/05/08 06:29:41;;;;;;;24.30;14.50;;;10.00;1.00;;;-143.32;74.40;54852.88;4980893;28;20438;-94
2021/05/08 07:33:48;;;;;;;14.17;8.67;;;12.20;99.90;;;-143.32;64.46;54962.00;4962353;28;20468;-91
2021/05/08 07:40:00;;;;;;;14.27;8.83;;;11.70;99.90;;;-143.32;62.95;54955.94;5012198;28;20794;-90
2021/05/08 07:42:27;;;;;;;31.53;8.63;;;11.70;99.90;;;-143.32;63.57;54909.47;5012260;28;20490;-88
2021/05/08 07:44:54;;;;;;;14.60;6.77;;;11.90;99.90;;;-143.32;60.50;54980.19;5036734;28;20448;-92
2021/05/08 07:47:25;;;;;;;12.00;6.17;;;12.10;99.90;;;-143.32;58.66;54927.66;5054587;28;20497;-89
2021/05/08 07:50:16;;;;;;;11.47;6.20;;;12.30;99.90;;;-143.32;57.08;54970.09;5053505;28;20431;-90
2021/05/08 07:52:43;;;;;;;9.83;5.40;;;12.30;99.90;;;-143.32;57.63;54964.03;5053348;28;20822;-89
2021/05/08 08:01:40;;;;;;;8.00;4.67;;;12.90;99.90;;;-143.32;50.83;55014.53;5056052;28;20447;-91
2021/05/08 08:04:09;;;;;;;6.10;3.93;;;12.90;99.90;;;-143.32;48.41;55071.13;5075215;28;20474;-89
2021/05/08 08:06:36;;;;;;;6.90;4.17;;;12.80;99.90;;;-143.32;50.55;55040.81;5073502;28;20580;-90
2021/05/08 08:09:03;;;;;;;6.00;3.50;;;13.00;99.90;;;-143.32;48.11;55067.06;5074583;28;20457;-91
2021/05/08 08:11:33;;;;;;;7.60;4.10;;;13.10;99.90;;;-143.32;47.93;55052.94;5073820;28;20905;-93
2021/05/08 08:14:02;;;;;;;5.40;3.87;;;13.20;99.90;;;-143.32;48.01;55046.88;5073627;28;20429;-92
2021/05/08 08:16:32;;;;;;;7.43;3.53;;;13.20;99.90;;;-143.32;46.93;55046.88;5074992;28;20430;-89
2021/05/08 08:19:00;;;;;;;8.50;4.10;;;13.40;99.90;;;-143.32;48.02;55054.94;5079646;28;20473;-90
2021/05/08 08:21:28;;;;;;;8.03;3.90;;;13.50;99.90;;;-143.32;45.75;55061.00;5081689;28;20794;-90
2021/05/08 08:23:57;;;;;;;7.17;3.30;;;13.50;99.90;;;-143.32;45.97;55085.25;5078850;28;20478;-90
2021/05/08 08:26:26;;;;;;;7.30;4.20;;;13.40;99.90;;;-143.32;46.64;55079.19;5078676;28;20556;-92
2021/05/08 08:28:53;;;;;;;8.53;4.17;;;13.50;99.90;;;-143.32;47.12;55075.16;5080069;28;20458;-91
2021/05/08 08:31:22;;;;;;;12.90;3.63;;;13.50;99.90;;;-143.32;47.93;55067.06;5078490;28;20439;-91
2021/05/08 08:33:49;;;;;;;7.20;3.57;;;13.40;99.90;;;-143.32;46.75;55061.00;5078779;28;21019;-91
2021/05/08 08:36:16;;;;;;;8.50;3.77;;;13.50;99.90;;;-143.32;47.32;55079.19;5077771;28;20454;-90
2021/05/08 08:38:49;;;;;;;10.60;3.73;;;13.50;99.90;;;-143.32;46.84;55071.13;5077900;28;20451;-90
2021/05/08 08:41:19;;;;;;;10.80;3.70;;;13.60;99.90;;;-143.32;47.79;55071.13;5077220;28;20414;-92
2021/05/08 08:43:46;;;;;;;6.13;3.67;;;13.60;99.90;;;-143.32;45.46;55107.50;5077139;28;20427;-91
2021/05/08 08:52:55;;;;;;;6.50;3.80;;;13.30;99.90;;;-143.32;47.37;55119.63;5023051;28;20448;-90
2021/05/08 08:55:51;;;;;;;8.73;4.00;;;13.30;99.90;;;-143.32;46.81;55067.06;5076411;28;20430;-89
2021/05/08 09:01:14;;;;;;;8.20;4.03;;;13.60;99.90;;;-143.32;46.36;55083.25;5059526;28;20516;-90
2021/05/08 09:03:41;;;;;;;7.23;3.67;;;13.50;99.90;;;-143.32;46.83;55115.56;5061844;28;20459;-90
2021/05/08 09:06:11;;;;;;;7.70;3.97;;;13.40;99.90;;;-143.32;45.97;55081.22;5060065;28;20486;-89
2021/05/08 09:08:39;;;;;;;9.37;4.40;;;13.60;99.90;;;-143.32;45.11;55097.38;5075211;28;20430;-90
2021/05/08 09:11:21;;;;;;;6.80;4.50;;;13.70;99.90;;;-143.32;44.65;55056.97;5056302;28;20447;-90
2021/05/08 09:13:48;;;;;;;7.60;4.67;;;13.90;99.90;;;-143.32;45.49;55095.38;5057547;28;20440;-89
2021/05/08 09:16:15;;;;;;;7.03;4.07;;;13.80;99.90;;;-143.32;43.81;55113.56;5060341;28;20516;-90
2021/05/08 09:18:44;;;;;;;9.70;5.17;;;13.80;99.90;;;-143.32;44.19;55083.25;5056081;28;20444;-89
2021/05/08 09:21:33;;;;;;;7.30;4.17;;;13.80;99.90;;;-143.32;43.79;55109.50;5064065;28;20455;-91
2021/05/08 09:24:00;;;;;;;12.13;3.97;;;13.90;99.90;;;-143.32;42.81;55119.63;5075691;28;21048;-92
2021/05/08 09:26:37;;;;;;;7.03;4.23;;;13.90;99.90;;;-143.32;44.48;55075.16;5075989;28;20486;-91
2021/05/08 09:29:19;;;;;;;6.57;4.03;;;13.90;99.90;;;-143.32;43.88;55113.56;5076346;28;20427;-90
2021/05/08 09:31:54;;;;;;;5.90;3.40;;;14.00;99.90;;;-143.32;42.22;55105.47;5076238;28;20936;-89
2021/05/08 09:34:21;;;;;;;7.77;4.20;;;14.20;99.90;;;-143.32;42.66;55075.16;5076227;28;20442;-91
2021/05/08 09:36:52;;;;;;;6.73;3.17;;;14.40;99.90;;;-143.32;40.55;55117.59;5077377;28;20474;-90
2021/05/08 09:39:29;;;;;;;9.23;3.47;;;14.40;99.90;;;-143.32;40.24;55071.13;5078736;28;20945;-92
2021/05/08 09:41:57;;;;;;;5.33;3.40;;;14.80;99.90;;;-143.32;41.20;55061.00;5076426;28;20442;-91
2021/05/08 09:44:24;;;;;;;11.87;3.70;;;14.90;99.90;;;-143.32;40.50;55075.16;5076716;28;20508;-90
2021/05/08 09:46:52;;;;;;;10.43;3.70;;;15.00;99.90;;;-143.32;39.70;55081.22;5076359;28;20490;-90
2021/05/08 09:53:07;;;;;;;6.27;3.83;;;15.20;99.90;;;-143.32;38.17;55123.66;5044783;28;20446;-91
2021/05/08 09:55:38;;;;;;;7.90;4.27;;;15.20;99.90;;;-143.32;38.22;55125.69;5075878;28;20428;-92
2021/05/08 10:02:45;;;;;;;5.43;3.47;;;15.20;99.90;;;-143.32;38.40;55091.31;5076770;28;20514;-92
2021/05/08 10:05:13;;;;;;;6.53;3.97;;;15.20;99.90;;;-143.32;39.21;55091.31;5077420;28;20447;-90
2021/05/08 10:07:40;;;;;;;5.83;3.30;;;15.50;99.90;;;-143.32;37.92;55103.44;5075102;28;20439;-91
2021/05/08 10:10:08;;;;;;;13.20;3.80;;;15.60;99.90;;;-143.32;37.85;55101.44;5076397;28;20482;-88
2021/05/08 10:16:24;;;;;;;9.20;4.03;;;15.60;99.90;;;-143.32;36.68;55119.63;5076551;28;20407;-95
2021/05/08 10:18:57;;;;;;;5.30;3.33;;;15.70;99.90;;;-143.32;37.51;55121.63;5077814;28;20435;-91
2021/05/08 10:25:38;;;;;;;9.53;4.17;;;15.60;99.90;;;-143.32;36.73;55119.63;5056017;28;20404;-91
2021/05/08 10:30:58;;;;;;;5.63;3.60;;;15.80;99.90;;;-143.32;37.23;55141.84;5050053;28;20455;-93
2021/05/08 10:33:32;;;;;;;7.20;3.27;;;15.70;99.90;;;-143.32;36.06;55119.63;5059323;28;20436;-91
2021/05/08 10:37:03;;;;;;;8.63;3.80;;;15.80;99.90;;;-143.32;35.39;55105.47;5061288;28;20460;-93
2021/05/08 10:40:13;;;;;;;6.93;4.10;;;16.00;99.90;;;-143.32;35.67;55131.75;5057519;28;20864;-90
2021/05/08 10:46:28;;;;;;;7.07;3.90;;;16.00;99.90;;;-143.32;35.11;55143.88;5059523;28;20482;-92
2021/05/08 10:56:38;;;;;;;6.83;3.37;;;16.20;99.90;;;-143.32;36.18;55147.91;5058663;28;20807;-91
2021/05/08 11:02:06;;;;;;;6.90;3.60;;;15.80;99.90;;;-143.32;35.46;55186.31;5053540;28;20455;-91
2021/05/08 11:04:36;;;;;;;4.83;2.93;;;15.80;99.90;;;-143.32;35.63;55182.25;5056860;28;20452;-92
2021/05/08 11:07:33;;;;;;;7.80;3.33;;;15.90;99.90;;;-143.32;35.24;55131.75;5059659;28;20475;-92
2021/05/08 11:10:39;;;;;;;6.37;3.67;;;15.90;99.90;;;-143.32;36.47;55186.31;5056880;28;20831;-91
2021/05/08 11:18:04;;;;;;;6.70;3.17;;;15.60;99.90;;;-143.32;37.08;55174.19;4983387;28;20423;-92
2021/05/08 11:29:02;;;;;;;6.03;3.30;;;15.60;99.90;;;-143.32;35.72;55153.97;4979030;28;20816;-93
2021/05/08 11:38:39;;;;;;;4.23;2.97;;;15.90;99.90;;;-143.32;36.56;55188.31;4959073;28;20443;-92
2021/05/08 11:41:29;;;;;;;3.77;3.13;;;16.00;99.90;;;-143.32;37.93;55172.16;5058059;28;20976;-92
2021/05/08 11:43:59;;;;;;;3.10;2.77;;;16.10;99.90;;;-143.32;36.97;55176.19;5058082;28;20474;-91
2021/05/08 11:47:27;;;;;;;4.20;2.77;;;16.10;99.90;;;-143.32;35.70;55190.34;5058057;28;20472;-92
2021/05/08 11:50:00;;;;;;;6.63;3.60;;;16.10;99.90;;;-143.32;36.40;55160.03;5055046;28;20806;-93
2021/05/08 11:52:44;;;;;;;4.33;3.00;;;16.20;99.90;;;-143.32;37.82;55141.84;5058528;28;20431;-92
2021/05/08 11:55:30;;;;;;;5.47;3.00;;;15.90;99.90;;;-143.32;37.84;55198.44;5058821;28;20914;-92
2021/05/08 11:58:08;;;;;;;5.00;2.93;;;15.90;99.90;;;-143.32;37.84;55160.03;5062685;28;20570;-92
2021/05/08 12:00:37;;;;;;;4.37;2.60;;;16.20;99.90;;;-143.32;37.90;55119.63;5056103;28;20442;-92
2021/05/08 12:03:17;;;;;;;5.27;3.13;;;16.10;99.90;;;-143.32;37.67;55188.31;5057751;28;20447;-93
2021/05/08 12:05:45;;;;;;;4.30;3.20;;;16.10;99.90;;;-143.32;38.83;55149.94;5058278;28;20521;-92
2021/05/08 12:08:15;;;;;;;5.60;3.10;;;16.10;99.90;;;-143.32;39.22;55174.19;5058471;28;20509;-94
2021/05/08 12:10:43;;;;;;;7.40;3.80;;;16.00;99.90;;;-143.32;39.49;55162.06;5057613;28;20451;-93
2021/05/08 12:13:11;;;;;;;3.70;2.80;;;15.90;99.90;;;-143.32;38.61;55156.00;5060786;28;20451;-93
2021/05/08 12:22:10;;;;;;;6.20;3.60;;;16.10;99.90;;;-143.32;38.47;55160.03;5057825;28;20955;-93
2021/05/08 12:24:37;;;;;;;9.40;3.20;;;16.00;99.90;;;-143.32;38.00;55184.28;5059168;28;20458;-92
2021/05/08 12:27:05;;;;;;;9.17;2.97;;;15.70;99.90;;;-143.32;40.54;55170.13;5059334;28;20816;-92
2021/05/08 12:29:54;;;;;;;3.60;2.57;;;15.50;99.90;;;-143.32;43.29;55194.38;5059490;28;20440;-91
2021/05/08 12:32:21;;;;;;;7.60;3.80;;;15.20;99.90;;;-143.32;46.24;55153.97;5064784;28;20448;-89
2021/05/08 12:34:53;;;;;;;5.90;3.00;;;15.00;99.90;;;-143.32;49.05;55105.47;5060675;28;20432;-89
2021/05/08 12:37:20;;;;;;;5.80;3.30;;;14.90;99.90;;;-143.32;50.24;55087.28;5061294;28;20416;-90
2021/05/08 12:39:51;;;;;;;3.20;2.53;;;14.90;99.90;;;-143.32;54.43;55071.13;5069271;28;20447;-93
2021/05/08 12:42:20;;;;;;;4.13;2.90;;;14.90;99.90;;;-143.32;55.49;55103.44;5066821;28;20448;-91
2021/05/08 12:44:50;;;;;;;9.93;3.40;;;14.60;99.90;;;-143.32;58.44;55038.78;5063763;28;20428;-89
2021/05/08 12:51:01;;;;;;;3.87;2.37;;;14.50;99.90;;;-143.32;60.09;55071.13;5069668;28;20476;-93
2021/05/08 12:53:29;;;;;;;5.70;3.30;;;14.30;99.90;;;-143.32;62.78;55048.88;5069759;28;20431;-92
2021/05/08 12:56:05;;;;;;;3.13;2.77;;;14.10;99.90;;;-143.32;61.76;55107.50;5068268;28;20436;-92
2021/05/08 12:58:37;;;;;;;4.60;3.10;;;13.90;99.90;;;-143.32;71.45;54994.34;5068294;28;20536;-92
2021/05/08 13:01:25;;;;;;;3.70;3.10;;;13.70;1.00;;;-143.32;70.97;55010.50;5071622;28;20436;-92
2021/05/08 13:04:02;;;;;;;4.57;3.53;;;13.50;1.00;;;-143.32;74.97;54947.84;5073700;28;20450;-92
2021/05/08 13:06:31;;;;;;;6.70;3.47;;;13.40;1.00;;;-143.32;76.93;54970.09;5072136;28;20494;-93
2021/05/08 13:08:59;;;;;;;5.40;3.00;;;13.20;1.00;;;-143.32;77.85;54951.91;5063397;28;20448;-90
2021/05/08 13:11:35;;;;;;;5.60;2.90;;;13.10;18.80;;;-143.32;82.61;54899.38;5058269;28;20942;-89
2021/05/08 13:14:20;;;;;;;3.83;3.10;;;12.90;99.90;;;-143.32;81.34;54957.97;5063931;28;20452;-90
2021/05/08 13:16:49;;;;;;;5.43;3.30;;;12.80;99.90;;;-143.32;81.62;54929.66;5068663;28;20443;-92
2021/05/08 13:19:17;;;;;;;4.50;3.00;;;12.70;99.90;;;-143.32;84.69;54919.56;5061770;28;20440;-90
2021/05/08 13:21:45;;;;;;;7.90;3.83;;;12.60;1.00;;;-143.32;85.70;54903.41;5059784;28;20452;-92
2021/05/08 13:24:13;;;;;;;8.70;3.70;;;12.50;1.00;;;-143.32;85.45;54897.34;5066070;28;20530;-93
2021/05/08 13:26:40;;;;;;;7.27;3.17;;;12.50;1.00;;;-143.32;85.76;54895.31;5061322;28;20487;-90
2021/05/08 13:29:07;;;;;;;6.47;4.20;;;12.40;1.00;;;-143.32;87.65;54869.06;5057150;28;20443;-92
2021/05/08 13:31:34;;;;;;;6.93;3.63;;;12.40;1.00;;;-143.32;86.55;54903.41;5058042;28;20479;-91
2021/05/08 13:34:01;;;;;;;6.23;3.50;;;12.40;1.00;;;-143.32;87.70;54865.00;5056766;28;20479;-92
2021/05/08 13:36:28;;;;;;;8.60;3.73;;;12.40;1.00;;;-143.32;88.44;54871.06;5056566;28;20505;-93
2021/05/08 13:39:13;;;;;;;6.07;3.40;;;12.40;9.10;;;-143.32;89.73;54842.78;5058503;28;20809;-92
2021/05/08 13:41:42;;;;;;;12.20;4.83;;;12.50;99.90;;;-143.32;91.47;54820.56;5057435;28;20476;-91
2021/05/08 13:44:25;;;;;;;6.17;3.67;;;12.50;1.00;;;-143.32;90.20;54798.34;5066130;28;20474;-91
2021/05/08 13:47:16;;;;;;;;;;;;;;;;;;;;;
2021/05/08 13:50:12;;;;;;;4.53;3.80;;;12.30;1.00;;;-143.32;91.77;54828.66;5068762;28;20434;-91
2021/05/08 13:52:41;;;;;;;7.40;4.20;;;12.30;1.00;;;-143.32;89.23;54860.97;5060757;28;20447;-90
2021/05/08 13:56:11;;;;;;;4.90;3.67;;;12.30;1.00;;;-143.32;90.29;54846.81;5091250;28;20419;-93
2021/05/08 13:59:00;;;;;;;6.13;3.50;;;12.50;99.90;;;-143.32;87.92;54848.84;5166555;22;21446;-92
2021/05/08 14:52:38;;;;;;;5.83;2.80;;;14.00;1.00;;;-143.32;77.78;54852.88;5725094;22;20528;-91
2021/05/08 15:28:47;;;;;;;5.63;3.37;;;14.50;99.90;;;-143.32;60.48;54937.75;4961739;29;20548;-91
2021/05/08 15:46:18;;;;;;;4.13;3.33;;;15.20;99.90;;;-143.32;57.51;54921.59;4884321;29;20482;-91
2021/05/08 15:49:07;;;;;;;3.13;2.40;;;15.30;99.90;;;-143.32;56.34;54903.41;4868743;29;20460;-91
2021/05/08 15:56:11;;;;;;;5.20;3.97;;;15.50;99.90;;;-143.32;57.34;54846.81;4983306;28;20439;-92
2021/05/08 16:02:32;;;;;;;3.90;2.40;;;16.00;99.90;;;-143.32;55.34;54895.31;4983034;28;20552;-93
2021/05/08 16:06:08;;;;;;;6.93;2.77;;;16.00;99.90;;;-143.32;57.61;54885.22;4986580;28;20451;-91
2021/05/08 16:13:11;;;;;;;3.80;2.40;;;15.90;99.90;;;-143.32;57.60;54881.19;5058647;28;20419;-93
2021/05/08 16:15:56;;;;;;;7.67;2.63;;;15.90;99.90;;;-143.32;57.88;54897.34;5062296;28;20927;-91
2021/05/08 16:18:35;;;;;;;7.83;2.67;;;15.80;99.90;;;-143.32;58.44;54903.41;5060039;28;20448;-91
2021/05/08 16:21:15;;;;;;;7.40;4.10;;;15.80;99.90;;;-143.32;56.67;54909.47;5058473;28;20458;-93
2021/05/08 16:24:05;;;;;;;6.70;3.07;;;15.80;99.90;;;-143.32;57.43;54869.06;5058211;28;20865;-91
2021/05/08 16:34:48;;;;;;;4.03;2.13;;;16.00;99.90;;;-143.32;57.09;54871.06;4987105;28;20423;-89
2021/05/08 16:41:21;;;;;;;7.00;2.17;;;16.00;99.90;;;-143.32;57.04;54911.50;5057544;28;20416;-90
2021/05/08 16:44:15;;;;;;;5.73;2.67;;;16.10;99.90;;;-143.32;57.29;54871.06;5059334;28;20432;-92
2021/05/08 16:47:32;;;;;;;4.20;2.47;;;16.10;99.90;;;-143.32;57.83;54838.75;5059492;28;20823;-92
2021/05/08 16:53:27;;;;;;;8.47;4.60;;;16.20;99.90;;;-143.32;57.22;54830.66;5059370;28;20454;-92
2021/05/08 16:55:56;;;;;;;3.53;2.47;;;16.30;99.90;;;-143.32;56.76;54822.59;5058557;28;20456;-91
2021/05/08 16:58:22;;;;;;;5.47;2.27;;;16.40;99.90;;;-143.32;55.83;54852.88;5061153;28;20968;-92
2021/05/08 17:00:49;;;;;;;9.93;3.77;;;16.40;99.90;;;-143.32;56.47;54846.81;5062078;28;20795;-92
2021/05/08 17:03:20;;;;;;;5.00;3.00;;;16.40;99.90;;;-143.32;56.77;54854.91;5065414;28;20542;-91
2021/05/08 17:06:07;;;;;;;4.33;3.00;;;16.40;99.90;;;-143.32;56.80;54842.78;5084347;28;20897;-91
2021/05/08 17:08:41;;;;;;;8.50;2.40;;;16.40;99.90;;;-143.32;56.07;54842.78;5084852;28;20439;-93
2021/05/08 17:11:08;;;;;;;8.63;2.30;;;16.40;99.90;;;-143.32;56.29;54830.66;5081788;28;20411;-91
2021/05/08 17:13:39;;;;;;;5.00;2.77;;;16.20;99.90;;;-143.32;56.15;54875.13;5078834;28;20454;-91
2021/05/08 17:16:08;;;;;;;3.33;2.40;;;16.20;99.90;;;-143.32;56.49;54852.88;5080683;28;20451;-90
2021/05/08 17:18:40;;;;;;;5.30;1.90;;;16.10;99.90;;;-143.32;56.12;54858.94;5083322;28;20522;-92
2021/05/08 17:25:25;;;;;;;;;;;;;;;;;;;;;
2021/05/08 17:27:59;;;;;;;2.50;2.10;;;16.10;99.90;;;-143.32;56.24;54875.13;5083926;28;20474;-92
2021/05/08 17:30:26;;;;;;;10.83;2.07;;;16.10;99.90;;;-143.32;56.47;54871.06;5082808;28;20410;-92
2021/05/08 17:33:06;;;;;;;8.27;3.37;;;16.10;99.90;;;-143.32;57.59;54873.09;5084117;28;20431;-92
2021/05/08 17:35:41;;;;;;;4.67;2.50;;;16.10;99.90;;;-143.32;57.25;54899.38;5083592;28;20917;-93
2021/05/08 17:38:11;;;;;;;3.30;2.23;;;16.30;99.90;;;-143.32;57.41;54879.16;5083822;28;20430;-93
2021/05/08 17:40:43;;;;;;;5.97;2.30;;;16.10;99.90;;;-143.32;57.44;54909.47;5082964;28;20465;-92
2021/05/08 17:43:11;;;;;;;4.90;2.47;;;16.10;99.90;;;-143.32;57.80;54844.81;5079703;28;20431;-91
2021/05/08 17:45:46;;;;;;;3.50;2.70;;;16.20;99.90;;;-143.32;57.47;54869.06;5082338;28;20463;-93
2021/05/08 17:48:15;;;;;;;6.33;2.40;;;16.20;99.90;;;-143.32;58.02;54877.13;5081895;28;20478;-94
2021/05/08 17:53:52;;;;;;;6.73;3.23;;;16.20;99.90;;;-143.32;58.08;54858.94;5202796;22;21003;-90
2021/05/08 17:56:23;;;;;;;7.43;2.73;;;16.20;99.90;;;-143.32;58.87;54895.31;5077813;28;20885;-91
2021/05/08 18:03:26;;;;;;;3.50;2.37;;;16.30;99.90;;;-143.32;60.18;54848.84;5057639;28;20443;-90
2021/05/08 21:34:11;;;;;;;8.17;2.73;;;14.90;23.80;;;-143.32;86.24;54689.22;4922927;29;20413;-94
